sensor_id;sensor_type;location;lat;lon;timestamp;P1;durP1;ratioP1;P2;durP2;ratioP2
62861;SDS011;48953;53.110;5.592;2022-11-20T00:01:35;30.02;;;13.40;;
62861;SDS011;48953;53.110;5.592;2022-11-20T00:04:02;31.40;;;14.38;;
62861;SDS011;48953;53.110;5.592;2022-11-20T00:06:28;30.30;;;14.48;;
62861;SDS011;48953;53.110;5.592;2022-11-20T00:08:57;26.95;;;13.35;;
62861;SDS011;48953;53.110;5.592;2022-11-20T00:11:25;26.25;;;12.95;;
62861;SDS011;48953;53.110;5.592;2022-11-20T00:16:54;25.80;;;13.07;;
62861;SDS011;48953;53.110;5.592;2022-11-20T00:19:20;25.33;;;13.57;;
62861;SDS011;48953;53.110;5.592;2022-11-20T00:21:46;25.88;;;13.27;;
62861;SDS011;48953;53.110;5.592;2022-11-20T00:24:16;28.00;;;14.60;;
62861;SDS011;48953;53.110;5.592;2022-11-20T00:26:42;27.90;;;14.35;;
62861;SDS011;48953;53.110;5.592;2022-11-20T00:29:08;27.98;;;14.38;;
62861;SDS011;48953;53.110;5.592;2022-11-20T00:31:35;31.95;;;14.90;;
62861;SDS011;48953;53.110;5.592;2022-11-20T00:34:01;25.50;;;13.55;;
62861;SDS011;48953;53.110;5.592;2022-11-20T00:36:28;25.77;;;13.27;;
62861;SDS011;48953;53.110;5.592;2022-11-20T00:38:55;23.90;;;12.27;;
62861;SDS011;48953;53.110;5.592;2022-11-20T00:41:21;30.15;;;13.23;;
62861;SDS011;48953;53.110;5.592;2022-11-20T00:43:48;22.67;;;11.95;;
62861;SDS011;48953;53.110;5.592;2022-11-20T00:46:15;21.35;;;11.65;;
62861;SDS011;48953;53.110;5.592;2022-11-20T00:48:41;22.98;;;10.98;;
62861;SDS011;48953;53.110;5.592;2022-11-20T00:51:07;20.98;;;11.15;;
62861;SDS011;48953;53.110;5.592;2022-11-20T00:53:33;20.08;;;11.30;;
62861;SDS011;48953;53.110;5.592;2022-11-20T00:56:04;19.20;;;10.30;;
62861;SDS011;48953;53.110;5.592;2022-11-20T01:01:15;20.17;;;9.00;;
62861;SDS011;48953;53.110;5.592;2022-11-20T01:03:42;22.45;;;10.52;;
62861;SDS011;48953;53.110;5.592;2022-11-20T01:06:10;19.92;;;9.55;;
62861;SDS011;48953;53.110;5.592;2022-11-20T01:08:37;17.48;;;9.25;;
62861;SDS011;48953;53.110;5.592;2022-11-20T01:11:05;17.35;;;9.20;;
62861;SDS011;48953;53.110;5.592;2022-11-20T01:13:31;18.63;;;9.45;;
62861;SDS011;48953;53.110;5.592;2022-11-20T01:16:04;23.23;;;11.13;;
62861;SDS011;48953;53.110;5.592;2022-11-20T01:18:31;20.20;;;10.65;;
62861;SDS011;48953;53.110;5.592;2022-11-20T01:21:00;20.08;;;10.10;;
62861;SDS011;48953;53.110;5.592;2022-11-20T01:23:29;19.75;;;9.60;;
62861;SDS011;48953;53.110;5.592;2022-11-20T01:25:55;20.65;;;10.13;;
62861;SDS011;48953;53.110;5.592;2022-11-20T01:28:21;22.45;;;10.73;;
62861;SDS011;48953;53.110;5.592;2022-11-20T01:30:47;20.92;;;10.27;;
62861;SDS011;48953;53.110;5.592;2022-11-20T01:33:13;20.00;;;9.38;;
62861;SDS011;48953;53.110;5.592;2022-11-20T01:35:39;18.77;;;9.60;;
62861;SDS011;48953;53.110;5.592;2022-11-20T01:38:05;20.38;;;9.48;;
62861;SDS011;48953;53.110;5.592;2022-11-20T01:40:31;18.05;;;9.30;;
62861;SDS011;48953;53.110;5.592;2022-11-20T01:43:39;18.95;;;9.88;;
62861;SDS011;48953;53.110;5.592;2022-11-20T01:48:12;31.23;;;14.43;;
62861;SDS011;48953;53.110;5.592;2022-11-20T01:50:39;27.88;;;14.10;;
62861;SDS011;48953;53.110;5.592;2022-11-20T01:53:06;19.05;;;11.77;;
62861;SDS011;48953;53.110;5.592;2022-11-20T01:55:34;22.08;;;9.70;;
62861;SDS011;48953;53.110;5.592;2022-11-20T01:58:02;19.40;;;9.57;;
62861;SDS011;48953;53.110;5.592;2022-11-20T02:00:29;19.95;;;8.90;;
62861;SDS011;48953;53.110;5.592;2022-11-20T02:02:56;18.42;;;9.57;;
62861;SDS011;48953;53.110;5.592;2022-11-20T02:05:25;16.88;;;8.88;;
62861;SDS011;48953;53.110;5.592;2022-11-20T02:07:52;19.83;;;9.63;;
62861;SDS011;48953;53.110;5.592;2022-11-20T02:10:20;17.88;;;9.32;;
62861;SDS011;48953;53.110;5.592;2022-11-20T02:12:46;18.90;;;9.38;;
62861;SDS011;48953;53.110;5.592;2022-11-20T02:15:32;19.02;;;9.10;;
62861;SDS011;48953;53.110;5.592;2022-11-20T02:17:58;20.10;;;9.32;;
62861;SDS011;48953;53.110;5.592;2022-11-20T02:20:24;18.63;;;9.15;;
62861;SDS011;48953;53.110;5.592;2022-11-20T02:22:53;18.85;;;9.18;;
62861;SDS011;48953;53.110;5.592;2022-11-20T02:25:20;18.58;;;8.80;;
62861;SDS011;48953;53.110;5.592;2022-11-20T02:27:46;21.15;;;10.23;;
62861;SDS011;48953;53.110;5.592;2022-11-20T02:30:12;21.10;;;10.10;;
62861;SDS011;48953;53.110;5.592;2022-11-20T02:32:39;18.73;;;9.73;;
62861;SDS011;48953;53.110;5.592;2022-11-20T02:35:09;23.98;;;12.48;;
62861;SDS011;48953;53.110;5.592;2022-11-20T02:37:36;26.77;;;13.65;;
62861;SDS011;48953;53.110;5.592;2022-11-20T02:40:03;26.40;;;14.05;;
62861;SDS011;48953;53.110;5.592;2022-11-20T02:42:29;24.92;;;13.68;;
62861;SDS011;48953;53.110;5.592;2022-11-20T02:44:55;24.95;;;13.55;;
62861;SDS011;48953;53.110;5.592;2022-11-20T02:47:20;23.80;;;13.07;;
62861;SDS011;48953;53.110;5.592;2022-11-20T02:49:46;20.63;;;10.63;;
62861;SDS011;48953;53.110;5.592;2022-11-20T02:52:12;21.52;;;11.02;;
62861;SDS011;48953;53.110;5.592;2022-11-20T02:54:38;21.15;;;10.93;;
62861;SDS011;48953;53.110;5.592;2022-11-20T02:57:04;17.83;;;10.20;;
62861;SDS011;48953;53.110;5.592;2022-11-20T02:59:30;20.73;;;11.10;;
62861;SDS011;48953;53.110;5.592;2022-11-20T03:01:56;18.58;;;10.35;;
62861;SDS011;48953;53.110;5.592;2022-11-20T03:04:22;21.88;;;10.07;;
62861;SDS011;48953;53.110;5.592;2022-11-20T03:06:48;19.00;;;10.20;;
62861;SDS011;48953;53.110;5.592;2022-11-20T03:09:14;18.40;;;9.85;;
62861;SDS011;48953;53.110;5.592;2022-11-20T03:11:40;20.23;;;10.07;;
62861;SDS011;48953;53.110;5.592;2022-11-20T03:14:06;18.75;;;9.60;;
62861;SDS011;48953;53.110;5.592;2022-11-20T03:16:32;20.98;;;10.07;;
62861;SDS011;48953;53.110;5.592;2022-11-20T03:18:58;19.63;;;9.70;;
62861;SDS011;48953;53.110;5.592;2022-11-20T03:21:24;18.00;;;9.18;;
62861;SDS011;48953;53.110;5.592;2022-11-20T03:23:50;15.02;;;8.77;;
62861;SDS011;48953;53.110;5.592;2022-11-20T03:26:18;17.45;;;8.73;;
62861;SDS011;48953;53.110;5.592;2022-11-20T03:28:48;18.17;;;9.13;;
62861;SDS011;48953;53.110;5.592;2022-11-20T03:31:15;19.38;;;9.65;;
62861;SDS011;48953;53.110;5.592;2022-11-20T03:33:41;16.65;;;9.10;;
62861;SDS011;48953;53.110;5.592;2022-11-20T03:36:09;15.13;;;9.05;;
62861;SDS011;48953;53.110;5.592;2022-11-20T03:38:35;16.55;;;9.23;;
62861;SDS011;48953;53.110;5.592;2022-11-20T03:41:05;18.38;;;9.43;;
62861;SDS011;48953;53.110;5.592;2022-11-20T03:43:32;17.27;;;9.52;;
62861;SDS011;48953;53.110;5.592;2022-11-20T03:45:58;17.67;;;8.93;;
62861;SDS011;48953;53.110;5.592;2022-11-20T03:48:28;19.45;;;9.90;;
62861;SDS011;48953;53.110;5.592;2022-11-20T03:51:11;18.65;;;8.80;;
62861;SDS011;48953;53.110;5.592;2022-11-20T03:53:37;18.70;;;9.73;;
62861;SDS011;48953;53.110;5.592;2022-11-20T03:56:04;15.10;;;8.48;;
62861;SDS011;48953;53.110;5.592;2022-11-20T03:58:30;17.48;;;9.13;;
62861;SDS011;48953;53.110;5.592;2022-11-20T04:00:56;19.38;;;9.55;;
62861;SDS011;48953;53.110;5.592;2022-11-20T04:03:22;17.60;;;8.93;;
62861;SDS011;48953;53.110;5.592;2022-11-20T04:05:48;15.77;;;8.32;;
62861;SDS011;48953;53.110;5.592;2022-11-20T04:08:14;16.85;;;8.57;;
62861;SDS011;48953;53.110;5.592;2022-11-20T04:10:40;14.95;;;7.97;;
62861;SDS011;48953;53.110;5.592;2022-11-20T04:13:06;16.48;;;8.68;;
62861;SDS011;48953;53.110;5.592;2022-11-20T04:15:32;18.67;;;8.82;;
62861;SDS011;48953;53.110;5.592;2022-11-20T04:17:58;15.00;;;8.40;;
62861;SDS011;48953;53.110;5.592;2022-11-20T04:20:24;14.98;;;7.85;;
62861;SDS011;48953;53.110;5.592;2022-11-20T04:22:52;15.45;;;8.57;;
62861;SDS011;48953;53.110;5.592;2022-11-20T04:25:19;16.67;;;8.55;;
62861;SDS011;48953;53.110;5.592;2022-11-20T04:27:44;17.27;;;8.55;;
62861;SDS011;48953;53.110;5.592;2022-11-20T04:30:11;14.70;;;7.88;;
62861;SDS011;48953;53.110;5.592;2022-11-20T04:32:37;15.45;;;8.35;;
62861;SDS011;48953;53.110;5.592;2022-11-20T04:35:03;15.55;;;7.72;;
62861;SDS011;48953;53.110;5.592;2022-11-20T04:37:29;17.63;;;8.52;;
62861;SDS011;48953;53.110;5.592;2022-11-20T04:39:55;15.00;;;7.80;;
62861;SDS011;48953;53.110;5.592;2022-11-20T04:42:21;17.55;;;8.20;;
62861;SDS011;48953;53.110;5.592;2022-11-20T04:44:53;14.25;;;8.35;;
62861;SDS011;48953;53.110;5.592;2022-11-20T04:47:19;15.32;;;8.15;;
62861;SDS011;48953;53.110;5.592;2022-11-20T04:49:45;15.98;;;8.70;;
62861;SDS011;48953;53.110;5.592;2022-11-20T04:52:11;15.25;;;8.27;;
62861;SDS011;48953;53.110;5.592;2022-11-20T04:54:37;14.20;;;7.43;;
62861;SDS011;48953;53.110;5.592;2022-11-20T04:57:03;15.00;;;7.28;;
62861;SDS011;48953;53.110;5.592;2022-11-20T04:59:29;15.60;;;7.93;;
62861;SDS011;48953;53.110;5.592;2022-11-20T05:01:55;15.70;;;7.82;;
62861;SDS011;48953;53.110;5.592;2022-11-20T05:04:21;13.88;;;7.13;;
62861;SDS011;48953;53.110;5.592;2022-11-20T05:06:49;14.93;;;8.05;;
62861;SDS011;48953;53.110;5.592;2022-11-20T05:09:15;17.42;;;9.57;;
62861;SDS011;48953;53.110;5.592;2022-11-20T05:11:41;16.88;;;8.23;;
62861;SDS011;48953;53.110;5.592;2022-11-20T05:14:07;14.98;;;8.00;;
62861;SDS011;48953;53.110;5.592;2022-11-20T05:16:34;13.90;;;7.85;;
62861;SDS011;48953;53.110;5.592;2022-11-20T05:19:00;16.73;;;8.00;;
62861;SDS011;48953;53.110;5.592;2022-11-20T05:21:26;15.20;;;7.88;;
62861;SDS011;48953;53.110;5.592;2022-11-20T05:23:52;13.80;;;7.40;;
62861;SDS011;48953;53.110;5.592;2022-11-20T05:26:21;14.98;;;7.63;;
62861;SDS011;48953;53.110;5.592;2022-11-20T05:28:48;14.00;;;7.32;;
62861;SDS011;48953;53.110;5.592;2022-11-20T05:31:15;15.57;;;8.15;;
62861;SDS011;48953;53.110;5.592;2022-11-20T05:33:42;16.50;;;7.95;;
62861;SDS011;48953;53.110;5.592;2022-11-20T05:36:08;16.35;;;8.23;;
62861;SDS011;48953;53.110;5.592;2022-11-20T05:38:35;14.88;;;7.82;;
62861;SDS011;48953;53.110;5.592;2022-11-20T05:41:08;13.10;;;7.68;;
62861;SDS011;48953;53.110;5.592;2022-11-20T05:43:34;12.88;;;7.30;;
62861;SDS011;48953;53.110;5.592;2022-11-20T05:46:00;15.82;;;7.43;;
62861;SDS011;48953;53.110;5.592;2022-11-20T05:48:26;15.25;;;7.85;;
62861;SDS011;48953;53.110;5.592;2022-11-20T05:50:52;15.65;;;7.60;;
62861;SDS011;48953;53.110;5.592;2022-11-20T05:53:18;13.43;;;7.68;;
62861;SDS011;48953;53.110;5.592;2022-11-20T05:55:44;15.00;;;7.50;;
62861;SDS011;48953;53.110;5.592;2022-11-20T05:58:10;19.23;;;8.32;;
62861;SDS011;48953;53.110;5.592;2022-11-20T06:00:36;16.02;;;8.27;;
62861;SDS011;48953;53.110;5.592;2022-11-20T06:03:02;15.50;;;8.05;;
62861;SDS011;48953;53.110;5.592;2022-11-20T06:05:28;16.55;;;8.70;;
62861;SDS011;48953;53.110;5.592;2022-11-20T06:07:54;13.48;;;8.02;;
62861;SDS011;48953;53.110;5.592;2022-11-20T06:10:20;14.45;;;7.13;;
62861;SDS011;48953;53.110;5.592;2022-11-20T06:12:46;14.07;;;7.35;;
62861;SDS011;48953;53.110;5.592;2022-11-20T06:15:12;15.57;;;8.45;;
62861;SDS011;48953;53.110;5.592;2022-11-20T06:17:38;16.45;;;8.77;;
62861;SDS011;48953;53.110;5.592;2022-11-20T06:20:04;16.27;;;8.40;;
62861;SDS011;48953;53.110;5.592;2022-11-20T06:22:31;14.85;;;8.35;;
62861;SDS011;48953;53.110;5.592;2022-11-20T06:24:58;16.73;;;8.40;;
62861;SDS011;48953;53.110;5.592;2022-11-20T06:27:24;14.45;;;7.93;;
62861;SDS011;48953;53.110;5.592;2022-11-20T06:30:00;15.43;;;8.68;;
62861;SDS011;48953;53.110;5.592;2022-11-20T06:32:26;17.30;;;8.57;;
62861;SDS011;48953;53.110;5.592;2022-11-20T06:34:52;17.23;;;8.85;;
62861;SDS011;48953;53.110;5.592;2022-11-20T06:37:18;19.23;;;8.98;;
62861;SDS011;48953;53.110;5.592;2022-11-20T06:39:44;15.55;;;8.23;;
62861;SDS011;48953;53.110;5.592;2022-11-20T06:42:10;16.67;;;9.18;;
62861;SDS011;48953;53.110;5.592;2022-11-20T06:44:36;18.40;;;9.20;;
62861;SDS011;48953;53.110;5.592;2022-11-20T06:47:02;17.77;;;9.35;;
62861;SDS011;48953;53.110;5.592;2022-11-20T06:49:28;19.92;;;9.25;;
62861;SDS011;48953;53.110;5.592;2022-11-20T06:51:54;20.02;;;8.88;;
62861;SDS011;48953;53.110;5.592;2022-11-20T06:54:20;14.63;;;8.52;;
62861;SDS011;48953;53.110;5.592;2022-11-20T06:56:46;17.95;;;9.55;;
62861;SDS011;48953;53.110;5.592;2022-11-20T06:59:13;20.45;;;9.68;;
62861;SDS011;48953;53.110;5.592;2022-11-20T07:01:39;18.00;;;9.45;;
62861;SDS011;48953;53.110;5.592;2022-11-20T07:04:05;21.27;;;9.00;;
62861;SDS011;48953;53.110;5.592;2022-11-20T07:06:31;20.73;;;8.95;;
62861;SDS011;48953;53.110;5.592;2022-11-20T07:08:57;18.00;;;8.93;;
62861;SDS011;48953;53.110;5.592;2022-11-20T07:11:23;16.73;;;9.15;;
62861;SDS011;48953;53.110;5.592;2022-11-20T07:13:49;17.48;;;9.45;;
62861;SDS011;48953;53.110;5.592;2022-11-20T07:16:15;18.55;;;9.00;;
62861;SDS011;48953;53.110;5.592;2022-11-20T07:18:42;16.02;;;8.65;;
62861;SDS011;48953;53.110;5.592;2022-11-20T07:21:08;20.52;;;9.75;;
62861;SDS011;48953;53.110;5.592;2022-11-20T07:23:35;17.27;;;8.77;;
62861;SDS011;48953;53.110;5.592;2022-11-20T07:26:05;16.77;;;9.23;;
62861;SDS011;48953;53.110;5.592;2022-11-20T07:28:31;16.63;;;8.90;;
62861;SDS011;48953;53.110;5.592;2022-11-20T07:30:58;16.92;;;9.00;;
62861;SDS011;48953;53.110;5.592;2022-11-20T07:33:23;19.10;;;10.18;;
62861;SDS011;48953;53.110;5.592;2022-11-20T07:35:50;19.38;;;9.63;;
62861;SDS011;48953;53.110;5.592;2022-11-20T07:38:15;19.88;;;9.85;;
62861;SDS011;48953;53.110;5.592;2022-11-20T07:40:41;23.50;;;11.35;;
62861;SDS011;48953;53.110;5.592;2022-11-20T07:43:07;19.38;;;9.77;;
62861;SDS011;48953;53.110;5.592;2022-11-20T07:45:33;23.42;;;10.20;;
62861;SDS011;48953;53.110;5.592;2022-11-20T07:47:59;20.15;;;10.63;;
62861;SDS011;48953;53.110;5.592;2022-11-20T07:50:25;22.20;;;10.57;;
62861;SDS011;48953;53.110;5.592;2022-11-20T07:52:51;23.27;;;10.98;;
62861;SDS011;48953;53.110;5.592;2022-11-20T07:55:17;21.25;;;10.23;;
62861;SDS011;48953;53.110;5.592;2022-11-20T07:57:43;24.10;;;11.05;;
62861;SDS011;48953;53.110;5.592;2022-11-20T08:00:10;21.00;;;11.07;;
62861;SDS011;48953;53.110;5.592;2022-11-20T08:02:37;19.73;;;10.63;;
62861;SDS011;48953;53.110;5.592;2022-11-20T08:07:45;20.45;;;9.73;;
62861;SDS011;48953;53.110;5.592;2022-11-20T08:10:14;18.95;;;9.80;;
62861;SDS011;48953;53.110;5.592;2022-11-20T08:12:44;20.52;;;10.63;;
62861;SDS011;48953;53.110;5.592;2022-11-20T08:15:29;22.65;;;11.40;;
62861;SDS011;48953;53.110;5.592;2022-11-20T08:18:09;23.95;;;11.88;;
62861;SDS011;48953;53.110;5.592;2022-11-20T08:20:36;25.13;;;11.30;;
62861;SDS011;48953;53.110;5.592;2022-11-20T08:23:06;24.60;;;11.05;;
62861;SDS011;48953;53.110;5.592;2022-11-20T08:25:33;20.83;;;10.20;;
62861;SDS011;48953;53.110;5.592;2022-11-20T08:27:59;21.20;;;10.65;;
62861;SDS011;48953;53.110;5.592;2022-11-20T08:30:25;19.63;;;10.70;;
62861;SDS011;48953;53.110;5.592;2022-11-20T08:32:52;22.38;;;10.63;;
62861;SDS011;48953;53.110;5.592;2022-11-20T08:35:19;21.13;;;10.43;;
62861;SDS011;48953;53.110;5.592;2022-11-20T08:37:48;18.30;;;10.27;;
62861;SDS011;48953;53.110;5.592;2022-11-20T08:40:14;19.27;;;10.20;;
62861;SDS011;48953;53.110;5.592;2022-11-20T08:42:47;16.65;;;9.38;;
62861;SDS011;48953;53.110;5.592;2022-11-20T08:45:14;17.58;;;9.48;;
62861;SDS011;48953;53.110;5.592;2022-11-20T08:47:40;18.85;;;9.55;;
62861;SDS011;48953;53.110;5.592;2022-11-20T08:50:07;19.77;;;9.70;;
62861;SDS011;48953;53.110;5.592;2022-11-20T08:52:33;15.60;;;8.55;;
62861;SDS011;48953;53.110;5.592;2022-11-20T08:54:59;13.98;;;8.30;;
62861;SDS011;48953;53.110;5.592;2022-11-20T08:57:25;17.98;;;9.30;;
62861;SDS011;48953;53.110;5.592;2022-11-20T08:59:51;15.73;;;8.55;;
62861;SDS011;48953;53.110;5.592;2022-11-20T09:02:17;15.93;;;9.32;;
62861;SDS011;48953;53.110;5.592;2022-11-20T09:04:43;16.13;;;8.68;;
62861;SDS011;48953;53.110;5.592;2022-11-20T09:07:09;16.13;;;8.85;;
62861;SDS011;48953;53.110;5.592;2022-11-20T09:09:34;13.85;;;8.25;;
62861;SDS011;48953;53.110;5.592;2022-11-20T09:12:00;14.73;;;8.55;;
62861;SDS011;48953;53.110;5.592;2022-11-20T09:14:26;15.02;;;8.77;;
62861;SDS011;48953;53.110;5.592;2022-11-20T09:16:55;16.75;;;8.90;;
62861;SDS011;48953;53.110;5.592;2022-11-20T09:19:21;16.45;;;8.43;;
62861;SDS011;48953;53.110;5.592;2022-11-20T09:21:47;17.55;;;8.32;;
62861;SDS011;48953;53.110;5.592;2022-11-20T09:24:13;18.23;;;9.32;;
62861;SDS011;48953;53.110;5.592;2022-11-20T09:26:39;16.55;;;8.38;;
62861;SDS011;48953;53.110;5.592;2022-11-20T09:29:05;17.33;;;9.43;;
62861;SDS011;48953;53.110;5.592;2022-11-20T09:31:31;16.40;;;8.68;;
62861;SDS011;48953;53.110;5.592;2022-11-20T09:33:57;13.57;;;7.70;;
62861;SDS011;48953;53.110;5.592;2022-11-20T09:36:23;17.02;;;9.43;;
62861;SDS011;48953;53.110;5.592;2022-11-20T09:38:49;16.45;;;8.60;;
62861;SDS011;48953;53.110;5.592;2022-11-20T09:46:28;14.85;;;8.55;;
62861;SDS011;48953;53.110;5.592;2022-11-20T09:54:08;13.85;;;7.53;;
62861;SDS011;48953;53.110;5.592;2022-11-20T09:56:37;15.90;;;9.02;;
62861;SDS011;48953;53.110;5.592;2022-11-20T09:59:05;15.07;;;8.27;;
62861;SDS011;48953;53.110;5.592;2022-11-20T10:01:33;16.85;;;9.45;;
62861;SDS011;48953;53.110;5.592;2022-11-20T10:04:04;16.83;;;8.27;;
62861;SDS011;48953;53.110;5.592;2022-11-20T10:06:32;16.33;;;8.30;;
62861;SDS011;48953;53.110;5.592;2022-11-20T10:09:06;17.13;;;9.05;;
62861;SDS011;48953;53.110;5.592;2022-11-20T10:14:11;17.27;;;9.95;;
62861;SDS011;48953;53.110;5.592;2022-11-20T10:29:19;16.65;;;9.18;;
62861;SDS011;48953;53.110;5.592;2022-11-20T10:31:48;17.63;;;8.70;;
62861;SDS011;48953;53.110;5.592;2022-11-20T10:34:31;18.08;;;9.43;;
62861;SDS011;48953;53.110;5.592;2022-11-20T10:37:04;17.83;;;10.52;;
62861;SDS011;48953;53.110;5.592;2022-11-20T10:42:00;18.95;;;9.80;;
62861;SDS011;48953;53.110;5.592;2022-11-20T10:44:28;15.93;;;8.75;;
62861;SDS011;48953;53.110;5.592;2022-11-20T10:47:13;15.85;;;9.20;;
62861;SDS011;48953;53.110;5.592;2022-11-20T10:49:40;17.30;;;9.23;;
62861;SDS011;48953;53.110;5.592;2022-11-20T10:54:50;15.90;;;9.43;;
62861;SDS011;48953;53.110;5.592;2022-11-20T11:00:06;15.68;;;8.98;;
62861;SDS011;48953;53.110;5.592;2022-11-20T11:02:39;17.20;;;9.20;;
62861;SDS011;48953;53.110;5.592;2022-11-20T11:05:11;17.48;;;8.77;;
62861;SDS011;48953;53.110;5.592;2022-11-20T11:07:40;15.98;;;8.98;;
62861;SDS011;48953;53.110;5.592;2022-11-20T11:10:14;16.88;;;9.52;;
62861;SDS011;48953;53.110;5.592;2022-11-20T11:12:42;18.08;;;10.35;;
62861;SDS011;48953;53.110;5.592;2022-11-20T11:15:13;15.73;;;9.35;;
62861;SDS011;48953;53.110;5.592;2022-11-20T11:17:46;15.15;;;8.95;;
62861;SDS011;48953;53.110;5.592;2022-11-20T11:22:48;16.40;;;9.35;;
62861;SDS011;48953;53.110;5.592;2022-11-20T11:25:21;15.43;;;8.13;;
62861;SDS011;48953;53.110;5.592;2022-11-20T11:27:48;16.25;;;9.15;;
62861;SDS011;48953;53.110;5.592;2022-11-20T11:30:15;16.10;;;8.45;;
62861;SDS011;48953;53.110;5.592;2022-11-20T11:32:41;13.00;;;8.40;;
62861;SDS011;48953;53.110;5.592;2022-11-20T11:35:26;14.88;;;8.25;;
62861;SDS011;48953;53.110;5.592;2022-11-20T11:37:54;14.05;;;7.88;;
62861;SDS011;48953;53.110;5.592;2022-11-20T11:40:27;15.50;;;8.77;;
62861;SDS011;48953;53.110;5.592;2022-11-20T11:43:05;15.57;;;9.02;;
62861;SDS011;48953;53.110;5.592;2022-11-20T11:45:54;13.05;;;8.00;;
62861;SDS011;48953;53.110;5.592;2022-11-20T11:48:21;16.53;;;8.83;;
62861;SDS011;48953;53.110;5.592;2022-11-20T11:50:50;15.32;;;8.57;;
62861;SDS011;48953;53.110;5.592;2022-11-20T11:53:20;13.13;;;7.47;;
62861;SDS011;48953;53.110;5.592;2022-11-20T11:55:56;12.90;;;7.32;;
62861;SDS011;48953;53.110;5.592;2022-11-20T12:01:12;13.80;;;7.70;;
62861;SDS011;48953;53.110;5.592;2022-11-20T12:03:40;13.65;;;7.95;;
62861;SDS011;48953;53.110;5.592;2022-11-20T12:06:11;13.77;;;8.30;;
62861;SDS011;48953;53.110;5.592;2022-11-20T12:08:47;14.07;;;7.82;;
62861;SDS011;48953;53.110;5.592;2022-11-20T12:11:23;12.55;;;7.50;;
62861;SDS011;48953;53.110;5.592;2022-11-20T12:16:42;10.75;;;7.13;;
62861;SDS011;48953;53.110;5.592;2022-11-20T12:19:12;10.60;;;6.22;;
62861;SDS011;48953;53.110;5.592;2022-11-20T12:30:32;11.20;;;6.90;;
62861;SDS011;48953;53.110;5.592;2022-11-20T12:35:25;11.60;;;7.18;;
62861;SDS011;48953;53.110;5.592;2022-11-20T12:38:38;12.20;;;7.68;;
62861;SDS011;48953;53.110;5.592;2022-11-20T12:43:23;10.52;;;6.55;;
62861;SDS011;48953;53.110;5.592;2022-11-20T12:49:04;11.23;;;6.78;;
62861;SDS011;48953;53.110;5.592;2022-11-20T12:56:57;10.07;;;6.63;;
62861;SDS011;48953;53.110;5.592;2022-11-20T13:02:01;11.60;;;7.10;;
62861;SDS011;48953;53.110;5.592;2022-11-20T13:07:08;11.43;;;7.32;;
62861;SDS011;48953;53.110;5.592;2022-11-20T13:09:35;11.45;;;7.15;;
62861;SDS011;48953;53.110;5.592;2022-11-20T13:12:14;10.27;;;7.60;;
62861;SDS011;48953;53.110;5.592;2022-11-20T13:14:47;11.43;;;6.82;;
62861;SDS011;48953;53.110;5.592;2022-11-20T13:17:38;10.57;;;6.45;;
62861;SDS011;48953;53.110;5.592;2022-11-20T13:20:03;11.05;;;7.20;;
62861;SDS011;48953;53.110;5.592;2022-11-20T13:22:52;11.88;;;6.93;;
62861;SDS011;48953;53.110;5.592;2022-11-20T13:25:27;11.13;;;6.55;;
62861;SDS011;48953;53.110;5.592;2022-11-20T13:27:54;11.35;;;6.03;;
62861;SDS011;48953;53.110;5.592;2022-11-20T13:30:21;9.10;;;5.57;;
62861;SDS011;48953;53.110;5.592;2022-11-20T13:32:49;11.40;;;6.45;;
62861;SDS011;48953;53.110;5.592;2022-11-20T13:35:23;10.13;;;6.25;;
62861;SDS011;48953;53.110;5.592;2022-11-20T13:37:58;11.95;;;7.25;;
62861;SDS011;48953;53.110;5.592;2022-11-20T13:40:27;10.95;;;6.90;;
62861;SDS011;48953;53.110;5.592;2022-11-20T13:45:38;11.18;;;7.15;;
62861;SDS011;48953;53.110;5.592;2022-11-20T13:48:15;12.02;;;7.00;;
62861;SDS011;48953;53.110;5.592;2022-11-20T13:50:48;10.33;;;7.10;;
62861;SDS011;48953;53.110;5.592;2022-11-20T13:53:33;11.20;;;7.47;;
62861;SDS011;48953;53.110;5.592;2022-11-20T13:56:07;13.30;;;7.45;;
62861;SDS011;48953;53.110;5.592;2022-11-20T14:01:21;10.30;;;6.65;;
62861;SDS011;48953;53.110;5.592;2022-11-20T14:03:48;12.82;;;7.93;;
62861;SDS011;48953;53.110;5.592;2022-11-20T14:06:30;11.90;;;7.65;;
62861;SDS011;48953;53.110;5.592;2022-11-20T14:08:57;11.75;;;7.55;;
62861;SDS011;48953;53.110;5.592;2022-11-20T14:11:25;11.77;;;7.47;;
62861;SDS011;48953;53.110;5.592;2022-11-20T14:13:52;11.70;;;7.35;;
62861;SDS011;48953;53.110;5.592;2022-11-20T14:16:22;12.43;;;7.07;;
62861;SDS011;48953;53.110;5.592;2022-11-20T14:18:48;12.20;;;6.68;;
62861;SDS011;48953;53.110;5.592;2022-11-20T14:21:21;13.10;;;7.63;;
62861;SDS011;48953;53.110;5.592;2022-11-20T14:23:48;12.45;;;7.57;;
62861;SDS011;48953;53.110;5.592;2022-11-20T14:26:14;12.57;;;7.70;;
62861;SDS011;48953;53.110;5.592;2022-11-20T14:28:47;10.23;;;6.55;;
62861;SDS011;48953;53.110;5.592;2022-11-20T14:31:17;14.50;;;7.50;;
62861;SDS011;48953;53.110;5.592;2022-11-20T14:33:44;12.85;;;7.53;;
62861;SDS011;48953;53.110;5.592;2022-11-20T14:36:16;12.45;;;7.68;;
62861;SDS011;48953;53.110;5.592;2022-11-20T14:38:42;11.73;;;7.05;;
62861;SDS011;48953;53.110;5.592;2022-11-20T14:41:09;15.50;;;8.05;;
62861;SDS011;48953;53.110;5.592;2022-11-20T14:43:44;12.75;;;7.55;;
62861;SDS011;48953;53.110;5.592;2022-11-20T14:46:10;12.85;;;8.50;;
62861;SDS011;48953;53.110;5.592;2022-11-20T14:48:39;13.43;;;8.32;;
62861;SDS011;48953;53.110;5.592;2022-11-20T14:51:05;13.40;;;7.95;;
62861;SDS011;48953;53.110;5.592;2022-11-20T14:53:31;16.35;;;8.65;;
62861;SDS011;48953;53.110;5.592;2022-11-20T14:55:58;14.77;;;8.90;;
62861;SDS011;48953;53.110;5.592;2022-11-20T14:58:25;16.20;;;9.45;;
62861;SDS011;48953;53.110;5.592;2022-11-20T15:00:56;14.93;;;8.98;;
62861;SDS011;48953;53.110;5.592;2022-11-20T15:03:22;12.68;;;7.65;;
62861;SDS011;48953;53.110;5.592;2022-11-20T15:05:49;12.85;;;7.70;;
62861;SDS011;48953;53.110;5.592;2022-11-20T15:08:15;14.98;;;8.45;;
62861;SDS011;48953;53.110;5.592;2022-11-20T15:10:51;12.05;;;7.85;;
62861;SDS011;48953;53.110;5.592;2022-11-20T15:13:24;14.90;;;8.23;;
62861;SDS011;48953;53.110;5.592;2022-11-20T15:15:52;15.07;;;8.57;;
62861;SDS011;48953;53.110;5.592;2022-11-20T15:18:21;11.60;;;7.70;;
62861;SDS011;48953;53.110;5.592;2022-11-20T15:20:47;13.07;;;8.40;;
62861;SDS011;48953;53.110;5.592;2022-11-20T15:23:15;21.52;;;8.15;;
62861;SDS011;48953;53.110;5.592;2022-11-20T15:25:43;16.70;;;8.90;;
62861;SDS011;48953;53.110;5.592;2022-11-20T15:28:13;13.55;;;7.43;;
62861;SDS011;48953;53.110;5.592;2022-11-20T15:30:42;13.52;;;8.25;;
62861;SDS011;48953;53.110;5.592;2022-11-20T15:33:08;14.23;;;8.98;;
62861;SDS011;48953;53.110;5.592;2022-11-20T15:35:34;17.58;;;10.15;;
62861;SDS011;48953;53.110;5.592;2022-11-20T15:38:00;15.27;;;8.32;;
62861;SDS011;48953;53.110;5.592;2022-11-20T15:40:26;16.77;;;9.02;;
62861;SDS011;48953;53.110;5.592;2022-11-20T15:42:52;15.55;;;8.57;;
62861;SDS011;48953;53.110;5.592;2022-11-20T15:45:27;13.90;;;8.63;;
62861;SDS011;48953;53.110;5.592;2022-11-20T15:47:54;14.90;;;8.98;;
62861;SDS011;48953;53.110;5.592;2022-11-20T15:50:20;14.85;;;8.18;;
62861;SDS011;48953;53.110;5.592;2022-11-20T15:52:47;17.15;;;8.70;;
62861;SDS011;48953;53.110;5.592;2022-11-20T15:55:13;16.20;;;8.55;;
62861;SDS011;48953;53.110;5.592;2022-11-20T15:57:39;17.90;;;9.30;;
62861;SDS011;48953;53.110;5.592;2022-11-20T16:00:05;17.60;;;9.95;;
62861;SDS011;48953;53.110;5.592;2022-11-20T16:02:31;16.20;;;9.65;;